Time;durP1;ratioP1;P1;durP2;ratioP2;P2;SDS_P1;SDS_P2;PMS_P1;PMS_P2;Temp;Humidity;BMP_temperature;BMP_pressure;BME280_temperature;BME280_humidity;BME280_pressure;Samples;Min_cycle;Max_cycle;Signal;HPM_P1;HPM_P2
2021/05/23 00:01:17;;;;;;;;;;;;;;;;;;4221348;33;20288;-85
2021/05/23 00:03:48;;;;;;;;;;;;;;;;;;4216560;33;19989;-83
2021/05/23 00:06:17;;;;;;;;;;;;;;;;;;4218290;33;20014;-80
2021/05/23 00:08:47;;;;;;;;;;;;;;;;;;4212779;33;20017;-83
2021/05/23 00:11:18;;;;;;;;;;;;;;;;;;4223587;33;19970;-85
2021/05/23 00:13:48;;;;;;;;;;;;;;;;;;4205653;34;19969;-84
2021/05/23 00:16:19;;;;;;;;;;;;;;;;;;4202009;34;20021;-81
2021/05/23 00:18:50;;;;;;;;;;;;;;;;;;4214540;33;20421;-84
2021/05/23 00:21:21;;;;;;;;;;;;;;;;;;4187257;34;19980;-86
2021/05/23 00:23:52;;;;;;;;;;;;;;;;;;4218614;33;20014;-82
2021/05/23 00:26:22;;;;;;;;;;;;;;;;;;4213918;34;20014;-85
2021/05/23 00:28:59;;;;;;;;;;;;;;;;;;4191334;34;19959;-83
2021/05/23 00:31:31;;;;;;;;;;;;;;;;;;4219289;34;20392;-80
2021/05/23 00:34:02;;;;;;;;;;;;;;;;;;4220838;33;20359;-82
2021/05/23 00:36:32;;;;;;;;;;;;;;;;;;4203279;34;19958;-84
2021/05/23 00:39:03;;;;;;;;;;;;;;;;;;4206565;34;20073;-81
2021/05/23 00:41:34;;;;;;;;;;;;;;;;;;4221069;33;19970;-84
2021/05/23 00:44:05;;;;;;;;;;;;;;;;;;4217173;33;20171;-81
2021/05/23 00:46:36;;;;;;;;;;;;;;;;;;4211791;33;20011;-82
2021/05/23 00:49:07;;;;;;;;;;;;;;;;;;4197010;33;20045;-83
2021/05/23 00:51:38;;;;;;;;;;;;;;;;;;4215311;33;19966;-85
2021/05/23 00:54:08;;;;;;;;;;;;;;;;;;4216109;33;20047;-83
2021/05/23 00:56:39;;;;;;;;;;;;;;;;;;4213986;33;19999;-83
2021/05/23 00:59:10;;;;;;;;;;;;;;;;;;4205185;34;19963;-82
2021/05/23 01:01:40;;;;;;;;;;;;;;;;;;4220598;33;19950;-81
2021/05/23 01:04:11;;;;;;;;;;;;;;;;;;4219662;33;20059;-83
2021/05/23 01:06:39;;;;;;;;;;;;;;;;;;4212861;33;19972;-84
2021/05/23 01:09:10;;;;;;;;;;;;;;;;;;4211064;33;20006;-80
2021/05/23 01:11:41;;;;;;;;;;;;;;;;;;4215524;33;19973;-81
2021/05/23 01:14:12;;;;;;;;;;;;;;;;;;4222518;33;20402;-82
2021/05/23 01:16:43;;;;;;;;;;;;;;;;;;4221380;33;20447;-82
2021/05/23 01:19:14;;;;;;;;;;;;;;;;;;4222850;33;19970;-81
2021/05/23 01:21:45;;;;;;;;;;;;;;;;;;4214403;33;20469;-83
2021/05/23 01:24:16;;;;;;;;;;;;;;;;;;4210181;34;20001;-83
2021/05/23 01:26:53;;;;;;;;;;;;;;;;;;4216027;33;19998;-83
2021/05/23 01:29:25;;;;;;;;;;;;;;;;;;4204815;33;20263;-79
2021/05/23 01:31:55;;;;;;;;;;;;;;;;;;4209575;33;20020;-83
2021/05/23 01:34:23;;;;;;;;;;;;;;;;;;4208321;33;20300;-81
2021/05/23 01:36:54;;;;;;;;;;;;;;;;;;4212507;33;19998;-85
2021/05/23 01:39:24;;;;;;;;;;;;;;;;;;4220193;33;20259;-85
2021/05/23 01:41:55;;;;;;;;;;;;;;;;;;4214587;33;20006;-80
2021/05/23 01:44:26;;;;;;;;;;;;;;;;;;4201199;34;20026;-81
2021/05/23 01:46:57;;;;;;;;;;;;;;;;;;4205789;33;19998;-81
2021/05/23 01:49:28;;;;;;;;;;;;;;;;;;4220288;33;20041;-82
2021/05/23 01:51:57;;;;;;;;;;;;;;;;;;4208465;33;20057;-84
2021/05/23 01:54:34;;;;;;;;;;;;;;;;;;4209912;33;19970;-83
2021/05/23 01:57:06;;;;;;;;;;;;;;;;;;4217917;33;20560;-83
2021/05/23 01:59:36;;;;;;;;;;;;;;;;;;4227032;33;19950;-82
2021/05/23 02:02:07;;;;;;;;;;;;;;;;;;4207068;33;20004;-83
2021/05/23 02:04:38;;;;;;;;;;;;;;;;;;4210523;33;20346;-82
2021/05/23 02:07:09;;;;;;;;;;;;;;;;;;4217534;33;20392;-83
2021/05/23 02:09:40;;;;;;;;;;;;;;;;;;4199816;34;20031;-83
2021/05/23 02:12:12;;;;;;;;;;;;;;;;;;4200346;34;19962;-83
2021/05/23 02:14:43;;;;;;;;;;;;;;;;;;4205915;34;20360;-82
2021/05/23 02:17:14;;;;;;;;;;;;;;;;;;4208970;34;20046;-85
2021/05/23 02:19:45;;;;;;;;;;;;;;;;;;4191088;33;20037;-85
2021/05/23 02:22:16;;;;;;;;;;;;;;;;;;4209223;33;20069;-84
2021/05/23 02:24:47;;;;;;;;;;;;;;;;;;4224403;33;20433;-83
2021/05/23 02:27:18;;;;;;;;;;;;;;;;;;4212297;33;20030;-82
2021/05/23 02:29:48;;;;;;;;;;;;;;;;;;4210674;33;20638;-84
2021/05/23 02:32:19;;;;;;;;;;;;;;;;;;4184602;33;20016;-82
2021/05/23 02:34:50;;;;;;;;;;;;;;;;;;4205724;33;19991;-83
2021/05/23 02:37:21;;;;;;;;;;;;;;;;;;4207765;33;19979;-84
2021/05/23 02:39:52;;;;;;;;;;;;;;;;;;4220165;33;19970;-81
2021/05/23 02:42:23;;;;;;;;;;;;;;;;;;4209835;34;19970;-83
2021/05/23 02:44:54;;;;;;;;;;;;;;;;;;4218109;33;20041;-85
2021/05/23 02:47:24;;;;;;;;;;;;;;;;;;4192635;33;20046;-82
2021/05/23 02:49:56;;;;;;;;;;;;;;;;;;4210742;34;20027;-84
2021/05/23 02:52:26;;;;;;;;;;;;;;;;;;4206787;33;20354;-83
2021/05/23 02:54:58;;;;;;;;;;;;;;;;;;4193576;34;20001;-84
2021/05/23 02:57:28;;;;;;;;;;;;;;;;;;4221649;33;19958;-83
2021/05/23 02:59:59;;;;;;;;;;;;;;;;;;4210073;34;20022;-82
2021/05/23 03:02:31;;;;;;;;;;;;;;;;;;4216829;33;20282;-82
2021/05/23 03:05:02;;;;;;;;;;;;;;;;;;4218139;33;19962;-83
2021/05/23 03:07:33;;;;;;;;;;;;;;;;;;4217793;33;19985;-84
2021/05/23 03:10:04;;;;;;;;;;;;;;;;;;4206805;33;20517;-83
2021/05/23 03:12:34;;;;;;;;;;;;;;;;;;4253700;28;19961;-94
2021/05/23 03:15:05;;;;;;;;;;;;;;;;;;4225172;33;19997;-94
2021/05/23 03:17:38;;;;;;;;;;;;;;;;;;4226166;33;19962;-94
2021/05/23 03:20:12;;;;;;;;;;;;;;;;;;4236435;33;20007;-94
2021/05/23 03:22:46;;;;;;;;;;;;;;;;;;4239025;33;19998;-96
2021/05/23 03:25:17;;;;;;;;;;;;;;;;;;4229216;33;20370;-94
2021/05/23 03:27:51;;;;;;;;;;;;;;;;;;4227053;33;20603;-95
2021/05/23 03:30:26;;;;;;;;;;;;;;;;;;4228482;33;20479;-95
2021/05/23 03:33:04;;;;;;;;;;;;;;;;;;4223403;33;19965;-94
2021/05/23 03:35:35;;;;;;;;;;;;;;;;;;4237076;33;20025;-95
2021/05/23 03:38:05;;;;;;;;;;;;;;;;;;4238030;33;19950;-94
2021/05/23 03:40:39;;;;;;;;;;;;;;;;;;4229158;33;20002;-92
2021/05/23 03:43:07;;;;;;;;;;;;;;;;;;4229714;33;19985;-94
2021/05/23 03:45:40;;;;;;;;;;;;;;;;;;4230357;33;19995;-94
2021/05/23 03:48:17;;;;;;;;;;;;;;;;;;4226682;33;19996;-95
2021/05/23 03:50:50;;;;;;;;;;;;;;;;;;4221105;33;20046;-93
2021/05/23 03:53:23;;;;;;;;;;;;;;;;;;4228091;33;20342;-93
2021/05/23 03:55:53;;;;;;;;;;;;;;;;;;4226658;33;20053;-94
2021/05/23 03:58:26;;;;;;;;;;;;;;;;;;4223749;33;19957;-93
2021/05/23 04:00:57;;;;;;;;;;;;;;;;;;4234736;33;20006;-95
2021/05/23 04:03:29;;;;;;;;;;;;;;;;;;4228250;33;20351;-94
2021/05/23 04:06:04;;;;;;;;;;;;;;;;;;4223245;33;20064;-94
2021/05/23 04:08:39;;;;;;;;;;;;;;;;;;4231100;33;19954;-93
2021/05/23 04:11:14;;;;;;;;;;;;;;;;;;4241432;33;19966;-93
2021/05/23 04:13:46;;;;;;;;;;;;;;;;;;4240713;33;19990;-95
2021/05/23 04:16:20;;;;;;;;;;;;;;;;;;4223726;33;20014;-94
2021/05/23 04:18:49;;;;;;;;;;;;;;;;;;4229796;33;19997;-93
2021/05/23 04:21:21;;;;;;;;;;;;;;;;;;4235058;33;19950;-92
2021/05/23 04:23:50;;;;;;;;;;;;;;;;;;4236250;33;20050;-93
2021/05/23 04:26:26;;;;;;;;;;;;;;;;;;4225098;33;20021;-94
2021/05/23 04:28:59;;;;;;;;;;;;;;;;;;4237846;33;19970;-94
2021/05/23 04:31:34;;;;;;;;;;;;;;;;;;4235250;33;19985;-93
2021/05/23 04:34:05;;;;;;;;;;;;;;;;;;4240171;33;20000;-94
2021/05/23 04:36:40;;;;;;;;;;;;;;;;;;4226729;33;20114;-94
2021/05/23 04:39:11;;;;;;;;;;;;;;;;;;4233169;33;19999;-94
2021/05/23 04:41:45;;;;;;;;;;;;;;;;;;4226391;33;20034;-93
2021/05/23 04:44:16;;;;;;;;;;;;;;;;;;4231289;33;19972;-95
2021/05/23 04:46:47;;;;;;;;;;;;;;;;;;4237175;33;19969;-94
2021/05/23 04:49:21;;;;;;;;;;;;;;;;;;4232261;33;20025;-96
2021/05/23 04:51:53;;;;;;;;;;;;;;;;;;4227170;33;20333;-94
2021/05/23 04:54:26;;;;;;;;;;;;;;;;;;4253612;33;20527;-94
2021/05/23 04:56:56;;;;;;;;;;;;;;;;;;4227754;33;20309;-95
2021/05/23 04:59:27;;;;;;;;;;;;;;;;;;4226739;33;19997;-93
2021/05/23 05:01:58;;;;;;;;;;;;;;;;;;4244653;33;20297;-95
2021/05/23 05:04:33;;;;;;;;;;;;;;;;;;4218239;33;19954;-94
2021/05/23 05:07:04;;;;;;;;;;;;;;;;;;4228160;33;19965;-95
2021/05/23 05:09:45;;;;;;;;;;;;;;;;;;4231778;33;19949;-95
2021/05/23 05:12:16;;;;;;;;;;;;;;;;;;4222825;33;19985;-95
2021/05/23 05:14:49;;;;;;;;;;;;;;;;;;4237525;33;19989;-94
2021/05/23 05:17:21;;;;;;;;;;;;;;;;;;4239647;33;19972;-95
2021/05/23 05:19:50;;;;;;;;;;;;;;;;;;4238395;33;20077;-94
2021/05/23 05:22:20;;;;;;;;;;;;;;;;;;4239082;33;19961;-94
2021/05/23 05:24:51;;;;;;;;;;;;;;;;;;4235267;33;20049;-92
2021/05/23 05:27:21;;;;;;;;;;;;;;;;;;4227298;33;20422;-94
2021/05/23 05:29:54;;;;;;;;;;;;;;;;;;4233361;33;20418;-94
2021/05/23 05:32:26;;;;;;;;;;;;;;;;;;4233167;33;19989;-94
2021/05/23 05:34:55;;;;;;;;;;;;;;;;;;4239318;33;20265;-94
2021/05/23 05:37:26;;;;;;;;;;;;;;;;;;4240740;33;20001;-94
2021/05/23 05:39:58;;;;;;;;;;;;;;;;;;4233414;33;20021;-93
2021/05/23 05:42:32;;;;;;;;;;;;;;;;;;4243541;33;19958;-94
2021/05/23 05:45:03;;;;;;;;;;;;;;;;;;4247052;33;19958;-95
2021/05/23 05:47:36;;;;;;;;;;;;;;;;;;4237432;33;19969;-93
2021/05/23 05:50:04;;;;;;;;;;;;;;;;;;4226262;33;20342;-94
2021/05/23 05:52:37;;;;;;;;;;;;;;;;;;4241719;33;20002;-94
2021/05/23 05:55:11;;;;;;;;;;;;;;;;;;4235877;33;19957;-94
2021/05/23 05:57:44;;;;;;;;;;;;;;;;;;4226610;33;20034;-94
2021/05/23 06:00:13;;;;;;;;;;;;;;;;;;4239946;33;19978;-94
2021/05/23 06:02:48;;;;;;;;;;;;;;;;;;4228332;33;20010;-94
2021/05/23 06:05:18;;;;;;;;;;;;;;;;;;4217198;33;19990;-95
2021/05/23 06:07:50;;;;;;;;;;;;;;;;;;4239789;33;20022;-92
2021/05/23 06:10:30;;;;;;;;;;;;;;;;;;4225970;33;20018;-93
2021/05/23 06:13:04;;;;;;;;;;;;;;;;;;4228682;33;19954;-94
2021/05/23 06:15:37;;;;;;;;;;;;;;;;;;4239749;33;20367;-95
2021/05/23 06:18:09;;;;;;;;;;;;;;;;;;4233654;33;19985;-92
2021/05/23 06:20:41;;;;;;;;;;;;;;;;;;4240336;33;19981;-94
2021/05/23 06:23:16;;;;;;;;;;;;;;;;;;4233139;33;21499;-93
2021/05/23 06:25:44;;;;;;;;;;;;;;;;;;4234880;33;19989;-94
2021/05/23 06:28:19;;;;;;;;;;;;;;;;;;4225487;33;19992;-94
2021/05/23 06:30:48;;;;;;;;;;;;;;;;;;4239751;33;20407;-94
2021/05/23 06:33:26;;;;;;;;;;;;;;;;;;4241457;33;20263;-94
2021/05/23 06:35:56;;;;;;;;;;;;;;;;;;4225407;33;19993;-94
2021/05/23 06:38:30;;;;;;;;;;;;;;;;;;4231184;33;19981;-95
2021/05/23 06:40:59;;;;;;;;;;;;;;;;;;4230421;33;19998;-94
2021/05/23 06:43:38;;;;;;;;;;;;;;;;;;4238261;33;20404;-95
2021/05/23 06:46:08;;;;;;;;;;;;;;;;;;4236586;33;20362;-94
2021/05/23 06:48:42;;;;;;;;;;;;;;;;;;4249254;33;19962;-94
2021/05/23 06:51:10;;;;;;;;;;;;;;;;;;4256188;33;20369;-93
2021/05/23 06:53:41;;;;;;;;;;;;;;;;;;4226351;33;19976;-95
2021/05/23 06:56:14;;;;;;;;;;;;;;;;;;4242260;33;20025;-96
2021/05/23 06:58:48;;;;;;;;;;;;;;;;;;4240616;33;19996;-96
2021/05/23 07:01:18;;;;;;;;;;;;;;;;;;4233088;33;20025;-94
2021/05/23 07:03:47;;;;;;;;;;;;;;;;;;4230321;33;19962;-95
2021/05/23 07:06:22;;;;;;;;;;;;;;;;;;4231279;33;22045;-94
2021/05/23 07:09:07;;;;;;;;;;;;;;;;;;4242820;33;19957;-94
2021/05/23 07:11:40;;;;;;;;;;;;;;;;;;4240119;33;20013;-93
2021/05/23 07:14:14;;;;;;;;;;;;;;;;;;4237597;33;20636;-95
2021/05/23 07:16:48;;;;;;;;;;;;;;;;;;4223184;33;20602;-96
2021/05/23 07:19:26;;;;;;;;;;;;;;;;;;4222323;33;19966;-95
2021/05/23 07:21:58;;;;;;;;;;;;;;;;;;4232183;33;19975;-95
2021/05/23 07:24:27;;;;;;;;;;;;;;;;;;4242954;33;20328;-96
2021/05/23 07:27:02;;;;;;;;;;;;;;;;;;4241456;33;20008;-95
2021/05/23 07:29:36;;;;;;;;;;;;;;;;;;4232737;33;20025;-96
2021/05/23 07:32:05;;;;;;;;;;;;;;;;;;4231444;33;20388;-96
2021/05/23 07:34:44;;;;;;;;;;;;;;;;;;4243616;33;20053;-96
2021/05/23 07:37:14;;;;;;;;;;;;;;;;;;4225592;33;19986;-96
2021/05/23 07:39:50;;;;;;;;;;;;;;;;;;4235532;33;19976;-96
2021/05/23 07:42:21;;;;;;;;;;;;;;;;;;4215335;34;19966;-96
2021/05/23 07:44:56;;;;;;;;;;;;;;;;;;4228412;33;19999;-96
2021/05/23 07:47:32;;;;;;;;;;;;;;;;;;4228432;33;19976;-94
2021/05/23 07:50:04;;;;;;;;;;;;;;;;;;4234630;33;20026;-96
2021/05/23 07:52:37;;;;;;;;;;;;;;;;;;4220069;33;19962;-95
2021/05/23 07:55:14;;;;;;;;;;;;;;;;;;4239607;33;19966;-95
2021/05/23 07:57:45;;;;;;;;;;;;;;;;;;4239792;33;19953;-95
2021/05/23 08:00:14;;;;;;;;;;;;;;;;;;4228336;33;19958;-94
2021/05/23 08:02:47;;;;;;;;;;;;;;;;;;4222842;33;19958;-96
2021/05/23 08:05:20;;;;;;;;;;;;;;;;;;4228166;33;19976;-95
2021/05/23 08:07:57;;;;;;;;;;;;;;;;;;4226345;33;20009;-96
2021/05/23 08:10:39;;;;;;;;;;;;;;;;;;4243819;33;20005;-96
2021/05/23 08:13:07;;;;;;;;;;;;;;;;;;4239300;33;19957;-96
2021/05/23 08:16:00;;;;;;;;;;;;;;;;;;4227489;33;19962;-96
2021/05/23 08:18:32;;;;;;;;;;;;;;;;;;4238113;33;19954;-96
2021/05/23 08:21:05;;;;;;;;;;;;;;;;;;4232461;33;20105;-94
2021/05/23 08:23:36;;;;;;;;;;;;;;;;;;4232880;33;19969;-95
2021/05/23 08:26:24;;;;;;;;;;;;;;;;;;4230098;33;20690;-95
2021/05/23 08:29:01;;;;;;;;;;;;;;;;;;4239637;33;19958;-95
2021/05/23 08:31:29;;;;;;;;;;;;;;;;;;4227536;33;19976;-94
2021/05/23 08:34:03;;;;;;;;;;;;;;;;;;4242705;33;19958;-94
2021/05/23 08:36:40;;;;;;;;;;;;;;;;;;4237395;33;20706;-93
2021/05/23 08:42:04;;;;;;;;;;;;;;;;;;4219229;34;19995;-82
2021/05/23 08:44:35;;;;;;;;;;;;;;;;;;4207555;34;20589;-85
2021/05/23 08:47:06;;;;;;;;;;;;;;;;;;4205669;33;20030;-83
2021/05/23 08:49:37;;;;;;;;;;;;;;;;;;4202630;34;20030;-84
2021/05/23 08:52:07;;;;;;;;;;;;;;;;;;4209516;34;19981;-85
2021/05/23 08:54:41;;;;;;;;;;;;;;;;;;4205658;33;20017;-83
2021/05/23 08:57:12;;;;;;;;;;;;;;;;;;4206620;33;20323;-82
2021/05/23 08:59:43;;;;;;;;;;;;;;;;;;4215021;33;20032;-84
2021/05/23 09:02:13;;;;;;;;;;;;;;;;;;4209636;33;20473;-86
2021/05/23 09:04:44;;;;;;;;;;;;;;;;;;4211626;33;19973;-86
2021/05/23 09:07:14;;;;;;;;;;;;;;;;;;4211081;33;20239;-83
2021/05/23 09:09:46;;;;;;;;;;;;;;;;;;4200796;34;20014;-88
2021/05/23 09:12:17;;;;;;;;;;;;;;;;;;4209134;34;20006;-82
2021/05/23 09:14:48;;;;;;;;;;;;;;;;;;4200915;33;20041;-82
2021/05/23 09:17:18;;;;;;;;;;;;;;;;;;4209780;34;19999;-83
2021/05/23 09:19:49;;;;;;;;;;;;;;;;;;4207936;33;19958;-82
2021/05/23 09:22:20;;;;;;;;;;;;;;;;;;4209886;34;19958;-85
2021/05/23 09:24:51;;;;;;;;;;;;;;;;;;4207026;33;20360;-82
2021/05/23 09:27:21;;;;;;;;;;;;;;;;;;4208260;33;20263;-84
2021/05/23 09:29:53;;;;;;;;;;;;;;;;;;4208371;33;20085;-84
2021/05/23 09:32:23;;;;;;;;;;;;;;;;;;4214779;34;19962;-83
2021/05/23 09:34:54;;;;;;;;;;;;;;;;;;4203513;34;20449;-85
2021/05/23 09:37:25;;;;;;;;;;;;;;;;;;4214357;33;20045;-86
2021/05/23 09:39:55;;;;;;;;;;;;;;;;;;4211740;34;20030;-85
2021/05/23 09:42:26;;;;;;;;;;;;;;;;;;4222261;33;20030;-85
2021/05/23 09:44:57;;;;;;;;;;;;;;;;;;4222253;34;20427;-84
2021/05/23 09:47:28;;;;;;;;;;;;;;;;;;4222304;33;19957;-81
2021/05/23 09:49:59;;;;;;;;;;;;;;;;;;4213756;33;19981;-82
2021/05/23 09:52:29;;;;;;;;;;;;;;;;;;4200455;34;19974;-82
2021/05/23 09:55:01;;;;;;;;;;;;;;;;;;4211768;33;19959;-84
2021/05/23 09:57:31;;;;;;;;;;;;;;;;;;4211538;33;20035;-86
2021/05/23 10:00:03;;;;;;;;;;;;;;;;;;4220173;34;20018;-84
2021/05/23 10:02:35;;;;;;;;;;;;;;;;;;4217264;34;19994;-82
2021/05/23 10:05:15;;;;;;;;;;;;;;;;;;4211619;33;19959;-83
2021/05/23 10:07:46;;;;;;;;;;;;;;;;;;4214701;34;19988;-83
2021/05/23 10:10:17;;;;;;;;;;;;;;;;;;4215743;33;20055;-83
2021/05/23 10:12:48;;;;;;;;;;;;;;;;;;4218026;34;20350;-81
2021/05/23 10:15:19;;;;;;;;;;;;;;;;;;4215798;34;20384;-82
2021/05/23 10:17:56;;;;;;;;;;;;;;;;;;4207792;34;20716;-83
2021/05/23 10:20:27;;;;;;;;;;;;;;;;;;4210198;34;20463;-84
2021/05/23 10:22:58;;;;;;;;;;;;;;;;;;4217309;34;19958;-80
2021/05/23 10:25:29;;;;;;;;;;;;;;;;;;4213478;34;19973;-84
2021/05/23 10:27:59;;;;;;;;;;;;;;;;;;4220179;34;20022;-83
2021/05/23 10:30:31;;;;;;;;;;;;;;;;;;4205678;34;20351;-83
2021/05/23 10:33:01;;;;;;;;;;;;;;;;;;4217083;34;19981;-83
2021/05/23 10:35:34;;;;;;;;;;;;;;;;;;4222815;34;20042;-81
2021/05/23 10:38:05;;;;;;;;;;;;;;;;;;4223932;33;20018;-81
2021/05/23 10:40:37;;;;;;;;;;;;;;;;;;4216979;33;20462;-81
2021/05/23 10:43:07;;;;;;;;;;;;;;;;;;4213357;34;19982;-82
2021/05/23 10:45:39;;;;;;;;;;;;;;;;;;4214645;34;19962;-83
2021/05/23 10:48:09;;;;;;;;;;;;;;;;;;4213613;34;19986;-80
2021/05/23 10:50:40;;;;;;;;;;;;;;;;;;4208554;34;19985;-84
2021/05/23 10:53:11;;;;;;;;;;;;;;;;;;4207268;34;19958;-81
2021/05/23 10:55:42;;;;;;;;;;;;;;;;;;4216454;34;20357;-82
2021/05/23 10:58:13;;;;;;;;;;;;;;;;;;4203657;34;20011;-82
2021/05/23 11:00:44;;;;;;;;;;;;;;;;;;4212975;34;20010;-80
2021/05/23 11:03:15;;;;;;;;;;;;;;;;;;4207081;34;19954;-82
2021/05/23 11:05:46;;;;;;;;;;;;;;;;;;4216989;34;19974;-81
2021/05/23 11:08:17;;;;;;;;;;;;;;;;;;4204971;34;20306;-82
2021/05/23 11:10:47;;;;;;;;;;;;;;;;;;4211045;34;20024;-80
2021/05/23 11:13:18;;;;;;;;;;;;;;;;;;4222312;34;19955;-81
2021/05/23 11:15:49;;;;;;;;;;;;;;;;;;4214487;34;19989;-81
2021/05/23 11:18:19;;;;;;;;;;;;;;;;;;4207684;34;19998;-81
2021/05/23 11:20:51;;;;;;;;;;;;;;;;;;4216876;34;19977;-81
2021/05/23 11:23:22;;;;;;;;;;;;;;;;;;4217737;34;19962;-81
2021/05/23 11:25:52;;;;;;;;;;;;;;;;;;4221708;34;20295;-80
2021/05/23 11:28:23;;;;;;;;;;;;;;;;;;4206209;34;20211;-81
2021/05/23 11:30:54;;;;;;;;;;;;;;;;;;4207872;34;20001;-83
2021/05/23 11:33:28;;;;;;;;;;;;;;;;;;4213087;34;19969;-82
2021/05/23 11:35:59;;;;;;;;;;;;;;;;;;4196821;34;20352;-82
2021/05/23 11:38:29;;;;;;;;;;;;;;;;;;4207033;34;20092;-82
2021/05/23 11:41:00;;;;;;;;;;;;;;;;;;4227111;33;19982;-81
2021/05/23 11:43:32;;;;;;;;;;;;;;;;;;4224424;33;20337;-83
2021/05/23 11:46:02;;;;;;;;;;;;;;;;;;4225012;33;19959;-82
2021/05/23 11:48:30;;;;;;;;;;;;;;;;;;4212352;33;20044;-80
2021/05/23 11:51:00;;;;;;;;;;;;;;;;;;4231066;33;20271;-81
2021/05/23 11:53:31;;;;;;;;;;;;;;;;;;4223001;33;19969;-79
2021/05/23 11:56:01;;;;;;;;;;;;;;;;;;4222413;33;20014;-82
2021/05/23 11:58:33;;;;;;;;;;;;;;;;;;4210420;33;20080;-82
2021/05/23 12:01:03;;;;;;;;;;;;;;;;;;4234188;33;20275;-83
2021/05/23 12:03:35;;;;;;;;;;;;;;;;;;4217701;33;20029;-81
2021/05/23 12:06:06;;;;;;;;;;;;;;;;;;4218929;33;20010;-82
2021/05/23 12:08:37;;;;;;;;;;;;;;;;;;4223883;33;20341;-84
2021/05/23 12:11:08;;;;;;;;;;;;;;;;;;4223705;33;20006;-82
2021/05/23 12:13:39;;;;;;;;;;;;;;;;;;4211512;33;20005;-83
2021/05/23 12:16:07;;;;;;;;;;;;;;;;;;4227786;33;20381;-82
2021/05/23 12:18:38;;;;;;;;;;;;;;;;;;4234954;33;20377;-81
2021/05/23 12:21:09;;;;;;;;;;;;;;;;;;4233758;33;20018;-81
2021/05/23 12:23:39;;;;;;;;;;;;;;;;;;4232662;33;19977;-81
2021/05/23 12:26:11;;;;;;;;;;;;;;;;;;4231943;33;20036;-84
2021/05/23 12:28:42;;;;;;;;;;;;;;;;;;4226117;33;20348;-82
2021/05/23 12:31:13;;;;;;;;;;;;;;;;;;4225741;33;19994;-81
2021/05/23 12:33:44;;;;;;;;;;;;;;;;;;4230401;33;19997;-81
2021/05/23 12:36:15;;;;;;;;;;;;;;;;;;4227612;33;20037;-81
2021/05/23 12:38:45;;;;;;;;;;;;;;;;;;4224839;33;20062;-83
2021/05/23 12:41:20;;;;;;;;;;;;;;;;;;4219268;33;19978;-81
2021/05/23 12:43:50;;;;;;;;;;;;;;;;;;4231265;33;19958;-81
2021/05/23 12:46:21;;;;;;;;;;;;;;;;;;4229952;33;19974;-81
2021/05/23 12:48:51;;;;;;;;;;;;;;;;;;4226545;33;19969;-83
2021/05/23 12:51:22;;;;;;;;;;;;;;;;;;4221136;33;19974;-80
2021/05/23 12:53:53;;;;;;;;;;;;;;;;;;4235739;33;20636;-81
2021/05/23 12:56:24;;;;;;;;;;;;;;;;;;4233515;33;19980;-83
2021/05/23 12:58:59;;;;;;;;;;;;;;;;;;4231866;33;20421;-82
2021/05/23 13:01:29;;;;;;;;;;;;;;;;;;4238128;33;20010;-82
2021/05/23 13:04:00;;;;;;;;;;;;;;;;;;4243205;33;19994;-82
2021/05/23 13:06:31;;;;;;;;;;;;;;;;;;4218690;33;19980;-83
2021/05/23 13:09:03;;;;;;;;;;;;;;;;;;4229857;33;19993;-81
2021/05/23 13:11:34;;;;;;;;;;;;;;;;;;4223982;33;20009;-82
2021/05/23 13:14:05;;;;;;;;;;;;;;;;;;4225711;33;19981;-81
2021/05/23 13:16:36;;;;;;;;;;;;;;;;;;4233110;33;19980;-80
2021/05/23 13:19:06;;;;;;;;;;;;;;;;;;4229349;33;20029;-80
2021/05/23 13:21:37;;;;;;;;;;;;;;;;;;4237715;33;19966;-80
2021/05/23 13:24:08;;;;;;;;;;;;;;;;;;4228052;33;19954;-80
2021/05/23 13:26:39;;;;;;;;;;;;;;;;;;4236103;33;19993;-80
2021/05/23 13:29:09;;;;;;;;;;;;;;;;;;4238830;33;20001;-81
2021/05/23 13:31:40;;;;;;;;;;;;;;;;;;4238043;33;19980;-80
2021/05/23 13:34:11;;;;;;;;;;;;;;;;;;4235124;33;19972;-81
2021/05/23 13:36:41;;;;;;;;;;;;;;;;;;4234647;33;19976;-79
2021/05/23 13:39:10;;;;;;;;;;;;;;;;;;4239460;33;20033;-82
2021/05/23 13:41:45;;;;;;;;;;;;;;;;;;4232833;33;20012;-81
2021/05/23 13:44:16;;;;;;;;;;;;;;;;;;4225939;33;19970;-81
2021/05/23 13:46:46;;;;;;;;;;;;;;;;;;4225960;33;20389;-81
2021/05/23 13:49:17;;;;;;;;;;;;;;;;;;4236627;33;20397;-81
2021/05/23 13:51:48;;;;;;;;;;;;;;;;;;4225629;33;19966;-80
2021/05/23 13:54:18;;;;;;;;;;;;;;;;;;4237470;33;19962;-80
2021/05/23 13:56:49;;;;;;;;;;;;;;;;;;4231731;33;20037;-80
2021/05/23 13:59:20;;;;;;;;;;;;;;;;;;4226745;33;20026;-81
2021/05/23 14:01:53;;;;;;;;;;;;;;;;;;4235946;33;20010;-82
2021/05/23 14:04:24;;;;;;;;;;;;;;;;;;4223729;33;20140;-84
2021/05/23 14:06:52;;;;;;;;;;;;;;;;;;4227104;33;19969;-82
2021/05/23 14:09:23;;;;;;;;;;;;;;;;;;4220026;33;20002;-80
2021/05/23 14:11:57;;;;;;;;;;;;;;;;;;4231654;33;19981;-81
2021/05/23 14:14:27;;;;;;;;;;;;;;;;;;4235028;33;20380;-83
2021/05/23 14:16:58;;;;;;;;;;;;;;;;;;4228822;33;19973;-81
2021/05/23 14:19:29;;;;;;;;;;;;;;;;;;4214170;33;20076;-83
2021/05/23 14:22:00;;;;;;;;;;;;;;;;;;4213965;33;20127;-82
2021/05/23 14:24:43;;;;;;;;;;;;;;;;;;4227823;33;20452;-81
2021/05/23 14:27:14;;;;;;;;;;;;;;;;;;4227731;33;20431;-83
2021/05/23 14:29:44;;;;;;;;;;;;;;;;;;4227729;33;19984;-81
2021/05/23 14:32:15;;;;;;;;;;;;;;;;;;4226518;33;19981;-81
2021/05/23 14:34:46;;;;;;;;;;;;;;;;;;4226959;33;20362;-80
2021/05/23 14:37:17;;;;;;;;;;;;;;;;;;4224093;33;19966;-80
2021/05/23 14:39:48;;;;;;;;;;;;;;;;;;4210512;33;19967;-80
2021/05/23 14:42:19;;;;;;;;;;;;;;;;;;4220439;33;20022;-84
2021/05/23 14:44:50;;;;;;;;;;;;;;;;;;4226426;33;20022;-81
2021/05/23 14:47:23;;;;;;;;;;;;;;;;;;4214887;33;20025;-80
2021/05/23 14:49:54;;;;;;;;;;;;;;;;;;4226485;33;19959;-82
2021/05/23 14:52:25;;;;;;;;;;;;;;;;;;4234063;33;19980;-82
2021/05/23 14:54:55;;;;;;;;;;;;;;;;;;4218956;33;20010;-83
2021/05/23 14:57:26;;;;;;;;;;;;;;;;;;4226179;33;20240;-83
2021/05/23 14:59:56;;;;;;;;;;;;;;;;;;4233174;33;20586;-83
2021/05/23 15:02:28;;;;;;;;;;;;;;;;;;4231013;33;20029;-81
2021/05/23 15:05:00;;;;;;;;;;;;;;;;;;4230764;33;20025;-84
2021/05/23 15:07:31;;;;;;;;;;;;;;;;;;4233580;33;19962;-83
2021/05/23 15:10:04;;;;;;;;;;;;;;;;;;4224475;33;20021;-79
2021/05/23 15:12:36;;;;;;;;;;;;;;;;;;4230637;33;20008;-80
2021/05/23 15:15:07;;;;;;;;;;;;;;;;;;4229757;33;19970;-83
2021/05/23 15:17:39;;;;;;;;;;;;;;;;;;4221912;33;19981;-82
2021/05/23 15:20:10;;;;;;;;;;;;;;;;;;4229300;33;20054;-81
2021/05/23 15:22:40;;;;;;;;;;;;;;;;;;4227293;33;19970;-84
2021/05/23 15:25:11;;;;;;;;;;;;;;;;;;4223827;33;20327;-82
2021/05/23 15:30:28;;;;;;;;;;;;;;;;;;4231754;33;19961;-80
2021/05/23 15:32:58;;;;;;;;;;;;;;;;;;4226561;33;20405;-82
2021/05/23 15:35:29;;;;;;;;;;;;;;;;;;4229013;33;19989;-82
2021/05/23 15:38:04;;;;;;;;;;;;;;;;;;4229785;33;20337;-80
2021/05/23 15:40:34;;;;;;;;;;;;;;;;;;4233701;33;20836;-82
2021/05/23 15:43:06;;;;;;;;;;;;;;;;;;4228323;33;19977;-81
2021/05/23 15:45:37;;;;;;;;;;;;;;;;;;4220574;33;19967;-82
2021/05/23 15:48:07;;;;;;;;;;;;;;;;;;4230532;33;20346;-83
2021/05/23 15:50:38;;;;;;;;;;;;;;;;;;4230008;33;20200;-83
2021/05/23 15:53:09;;;;;;;;;;;;;;;;;;4215939;33;19978;-81
2021/05/23 15:55:39;;;;;;;;;;;;;;;;;;4211991;33;19969;-80
2021/05/23 15:58:11;;;;;;;;;;;;;;;;;;4233809;33;20358;-80
2021/05/23 16:00:41;;;;;;;;;;;;;;;;;;4232870;33;19963;-84
2021/05/23 16:03:12;;;;;;;;;;;;;;;;;;4227646;33;20006;-80
2021/05/23 16:05:44;;;;;;;;;;;;;;;;;;4228429;33;19970;-82
2021/05/23 16:08:15;;;;;;;;;;;;;;;;;;4230075;33;20214;-83
2021/05/23 16:10:46;;;;;;;;;;;;;;;;;;4222163;33;20070;-83
2021/05/23 16:13:17;;;;;;;;;;;;;;;;;;4222585;33;20360;-82
2021/05/23 16:15:48;;;;;;;;;;;;;;;;;;4231986;33;20025;-81
2021/05/23 16:18:19;;;;;;;;;;;;;;;;;;4233458;33;19966;-82
2021/05/23 16:20:52;;;;;;;;;;;;;;;;;;4222271;33;20021;-81
2021/05/23 16:23:23;;;;;;;;;;;;;;;;;;4209006;33;19968;-84
2021/05/23 16:25:54;;;;;;;;;;;;;;;;;;4214788;33;19972;-80
2021/05/23 16:28:24;;;;;;;;;;;;;;;;;;4220688;34;19959;-80
2021/05/23 16:30:55;;;;;;;;;;;;;;;;;;4219837;33;19966;-82
2021/05/23 16:33:27;;;;;;;;;;;;;;;;;;4229940;33;19972;-80
2021/05/23 16:35:57;;;;;;;;;;;;;;;;;;4223239;33;20032;-80
2021/05/23 16:38:29;;;;;;;;;;;;;;;;;;4219239;33;20113;-83
2021/05/23 16:40:59;;;;;;;;;;;;;;;;;;4224254;33;20073;-80
2021/05/23 16:43:30;;;;;;;;;;;;;;;;;;4225504;33;20452;-84
2021/05/23 16:46:00;;;;;;;;;;;;;;;;;;4228108;33;20017;-81
2021/05/23 16:48:32;;;;;;;;;;;;;;;;;;4218259;33;20310;-80
2021/05/23 16:51:02;;;;;;;;;;;;;;;;;;4223908;33;19985;-80
2021/05/23 16:53:33;;;;;;;;;;;;;;;;;;4220787;33;19986;-82
2021/05/23 16:56:03;;;;;;;;;;;;;;;;;;4215336;33;20026;-82
2021/05/23 16:58:35;;;;;;;;;;;;;;;;;;4232588;33;20003;-82
2021/05/23 17:01:06;;;;;;;;;;;;;;;;;;4232074;33;20036;-82
2021/05/23 17:03:36;;;;;;;;;;;;;;;;;;4232384;33;20398;-80
2021/05/23 17:06:09;;;;;;;;;;;;;;;;;;4222371;33;20354;-80
2021/05/23 17:08:40;;;;;;;;;;;;;;;;;;4224215;33;20421;-83
2021/05/23 17:11:10;;;;;;;;;;;;;;;;;;4233148;33;19997;-81
2021/05/23 17:13:41;;;;;;;;;;;;;;;;;;4220419;33;19965;-81
2021/05/23 17:16:12;;;;;;;;;;;;;;;;;;4229978;33;19962;-81
2021/05/23 17:18:44;;;;;;;;;;;;;;;;;;4232362;33;20010;-81
2021/05/23 17:21:15;;;;;;;;;;;;;;;;;;4231886;33;20334;-82